Pennville, Indiana
Current Conditions -  °F | °C
As of 12:53 PM on Thursday 23 Oct 2014 (Local Time) from KMIE Reporting Station
Clear Clear  
Wind Chill: 54°   Ceiling: Unl
Heat Index: 54°   Visibility: 10mi
Dew Point: 40°   Wind: 5mph
Humidity: 59%   Direction: 220°SW
Pressure: 30.23"   Gusts: NA
Location:  40.49°N, 85.15°W
Report Text: KMIE 231653Z 22004KT 10SM CLR 12/04 A3023 RMK AO2 SLP236 T01220044
Loading
Personal Weather Stations






























Interactive Weather Map
Tropical Storm Tracking
New forecast layout! Learn more

10-Day Weather Forecast

Advertisements
Track Severe Weather on mobile